sensor_id;sensor_type;location;lat;lon;timestamp;temperature;humidity
16732;DHT22;8484;50.904;9.192;2023-02-07T00:01:30;1.60;99.90
16732;DHT22;8484;50.904;9.192;2023-02-07T00:03:59;1.60;99.90
16732;DHT22;8484;50.904;9.192;2023-02-07T00:06:28;1.50;99.90
16732;DHT22;8484;50.904;9.192;2023-02-07T00:08:57;1.50;99.90
16732;DHT22;8484;50.904;9.192;2023-02-07T00:11:24;1.40;99.90
16732;DHT22;8484;50.904;9.192;2023-02-07T00:13:52;1.30;99.90
16732;DHT22;8484;50.904;9.192;2023-02-07T00:16:20;1.30;99.90
16732;DHT22;8484;50.904;9.192;2023-02-07T00:18:47;1.20;99.90
16732;DHT22;8484;50.904;9.192;2023-02-07T00:21:17;1.10;99.90
16732;DHT22;8484;50.904;9.192;2023-02-07T00:23:45;1.00;99.90
16732;DHT22;8484;50.904;9.192;2023-02-07T00:26:13;1.00;99.90
16732;DHT22;8484;50.904;9.192;2023-02-07T00:28:40;0.80;99.90
16732;DHT22;8484;50.904;9.192;2023-02-07T00:31:10;0.70;99.90
16732;DHT22;8484;50.904;9.192;2023-02-07T00:33:39;0.70;99.90
16732;DHT22;8484;50.904;9.192;2023-02-07T00:36:09;0.60;99.90
16732;DHT22;8484;50.904;9.192;2023-02-07T00:38:37;0.60;99.90
16732;DHT22;8484;50.904;9.192;2023-02-07T00:41:05;0.50;99.90
16732;DHT22;8484;50.904;9.192;2023-02-07T00:43:32;0.60;99.90
16732;DHT22;8484;50.904;9.192;2023-02-07T00:46:01;0.70;99.90
16732;DHT22;8484;50.904;9.192;2023-02-07T00:48:30;0.60;99.90
16732;DHT22;8484;50.904;9.192;2023-02-07T00:50:57;0.80;99.90
16732;DHT22;8484;50.904;9.192;2023-02-07T00:53:25;0.80;99.90
16732;DHT22;8484;50.904;9.192;2023-02-07T00:55:53;0.80;99.90
16732;DHT22;8484;50.904;9.192;2023-02-07T00:58:21;0.80;99.90
16732;DHT22;8484;50.904;9.192;2023-02-07T01:00:48;0.80;99.90
16732;DHT22;8484;50.904;9.192;2023-02-07T01:03:15;0.90;99.90
16732;DHT22;8484;50.904;9.192;2023-02-07T01:05:42;0.90;99.90
16732;DHT22;8484;50.904;9.192;2023-02-07T01:08:09;0.90;99.90
16732;DHT22;8484;50.904;9.192;2023-02-07T01:10:38;1.00;99.90
16732;DHT22;8484;50.904;9.192;2023-02-07T01:13:07;1.00;99.90
16732;DHT22;8484;50.904;9.192;2023-02-07T01:15:35;1.00;99.90
16732;DHT22;8484;50.904;9.192;2023-02-07T01:18:02;1.10;99.90
16732;DHT22;8484;50.904;9.192;2023-02-07T01:20:29;1.10;99.90
16732;DHT22;8484;50.904;9.192;2023-02-07T01:22:56;1.00;99.90
16732;DHT22;8484;50.904;9.192;2023-02-07T01:25:23;1.10;99.90
16732;DHT22;8484;50.904;9.192;2023-02-07T01:27:50;1.00;99.90
16732;DHT22;8484;50.904;9.192;2023-02-07T01:30:18;1.10;99.90
16732;DHT22;8484;50.904;9.192;2023-02-07T01:32:45;1.00;99.90
16732;DHT22;8484;50.904;9.192;2023-02-07T01:35:12;1.00;99.90
16732;DHT22;8484;50.904;9.192;2023-02-07T01:37:39;0.80;99.90
16732;DHT22;8484;50.904;9.192;2023-02-07T01:40:07;0.90;99.90
16732;DHT22;8484;50.904;9.192;2023-02-07T01:42:34;0.80;99.90
16732;DHT22;8484;50.904;9.192;2023-02-07T01:45:07;0.90;99.90
16732;DHT22;8484;50.904;9.192;2023-02-07T01:47:40;0.80;99.90
16732;DHT22;8484;50.904;9.192;2023-02-07T01:50:07;1.10;99.90
16732;DHT22;8484;50.904;9.192;2023-02-07T01:52:37;1.10;99.90
16732;DHT22;8484;50.904;9.192;2023-02-07T01:55:08;1.10;99.90
16732;DHT22;8484;50.904;9.192;2023-02-07T01:57:35;1.20;99.90
16732;DHT22;8484;50.904;9.192;2023-02-07T02:00:03;1.00;99.90
16732;DHT22;8484;50.904;9.192;2023-02-07T02:02:32;0.80;99.90
16732;DHT22;8484;50.904;9.192;2023-02-07T02:05:02;0.80;99.90
16732;DHT22;8484;50.904;9.192;2023-02-07T02:07:30;0.70;99.90
16732;DHT22;8484;50.904;9.192;2023-02-07T02:09:57;0.70;99.90
16732;DHT22;8484;50.904;9.192;2023-02-07T02:12:35;0.70;99.90
16732;DHT22;8484;50.904;9.192;2023-02-07T02:15:16;0.60;99.90
16732;DHT22;8484;50.904;9.192;2023-02-07T02:17:55;0.40;99.90
16732;DHT22;8484;50.904;9.192;2023-02-07T02:23:42;0.30;99.90
16732;DHT22;8484;50.904;9.192;2023-02-07T02:32:49;-0.20;99.90
16732;DHT22;8484;50.904;9.192;2023-02-07T02:35:24;-0.30;99.90
16732;DHT22;8484;50.904;9.192;2023-02-07T02:37:57;-0.20;99.90
16732;DHT22;8484;50.904;9.192;2023-02-07T02:40:30;-0.30;99.90
16732;DHT22;8484;50.904;9.192;2023-02-07T02:43:03;-0.30;99.90
16732;DHT22;8484;50.904;9.192;2023-02-07T02:45:34;-0.40;99.90
16732;DHT22;8484;50.904;9.192;2023-02-07T02:48:05;-0.50;99.90
16732;DHT22;8484;50.904;9.192;2023-02-07T02:50:33;-0.60;99.90
16732;DHT22;8484;50.904;9.192;2023-02-07T02:53:01;-0.60;99.90
16732;DHT22;8484;50.904;9.192;2023-02-07T02:55:50;-0.70;99.90
16732;DHT22;8484;50.904;9.192;2023-02-07T02:58:25;-0.70;99.90
16732;DHT22;8484;50.904;9.192;2023-02-07T03:01:05;-0.70;99.90
16732;DHT22;8484;50.904;9.192;2023-02-07T03:03:50;-0.90;99.90
16732;DHT22;8484;50.904;9.192;2023-02-07T03:06:36;-1.00;99.90
16732;DHT22;8484;50.904;9.192;2023-02-07T03:09:16;-0.90;99.90
16732;DHT22;8484;50.904;9.192;2023-02-07T03:11:53;-0.90;99.90
16732;DHT22;8484;50.904;9.192;2023-02-07T03:14:30;-0.90;99.90
16732;DHT22;8484;50.904;9.192;2023-02-07T03:17:12;-1.00;99.90
16732;DHT22;8484;50.904;9.192;2023-02-07T03:19:45;-1.00;99.90
16732;DHT22;8484;50.904;9.192;2023-02-07T03:22:16;-1.10;99.90
16732;DHT22;8484;50.904;9.192;2023-02-07T03:24:47;-1.20;99.90
16732;DHT22;8484;50.904;9.192;2023-02-07T03:27:17;-1.10;99.90
16732;DHT22;8484;50.904;9.192;2023-02-07T03:29:46;-1.00;99.90
16732;DHT22;8484;50.904;9.192;2023-02-07T03:32:15;-1.00;99.90
16732;DHT22;8484;50.904;9.192;2023-02-07T03:34:50;-1.10;99.90
16732;DHT22;8484;50.904;9.192;2023-02-07T03:37:22;-1.20;99.90
16732;DHT22;8484;50.904;9.192;2023-02-07T03:39:53;-1.20;99.90
16732;DHT22;8484;50.904;9.192;2023-02-07T03:42:23;-1.20;99.90
16732;DHT22;8484;50.904;9.192;2023-02-07T03:44:53;-1.20;99.90
16732;DHT22;8484;50.904;9.192;2023-02-07T03:47:21;-1.20;99.90
16732;DHT22;8484;50.904;9.192;2023-02-07T03:49:49;-1.30;99.90
16732;DHT22;8484;50.904;9.192;2023-02-07T03:52:16;-1.20;99.90
16732;DHT22;8484;50.904;9.192;2023-02-07T03:54:43;-1.20;99.90
16732;DHT22;8484;50.904;9.192;2023-02-07T03:57:10;-1.20;99.90
16732;DHT22;8484;50.904;9.192;2023-02-07T03:59:37;-1.20;99.90
16732;DHT22;8484;50.904;9.192;2023-02-07T04:02:04;-1.30;99.90
16732;DHT22;8484;50.904;9.192;2023-02-07T04:04:31;-1.30;99.90
16732;DHT22;8484;50.904;9.192;2023-02-07T04:06:59;-1.30;99.90
16732;DHT22;8484;50.904;9.192;2023-02-07T04:09:26;-1.30;99.90
16732;DHT22;8484;50.904;9.192;2023-02-07T04:11:53;-1.40;99.90
16732;DHT22;8484;50.904;9.192;2023-02-07T04:14:20;-1.50;99.90
16732;DHT22;8484;50.904;9.192;2023-02-07T04:16:47;-1.50;99.90
16732;DHT22;8484;50.904;9.192;2023-02-07T04:19:14;-1.50;99.90
16732;DHT22;8484;50.904;9.192;2023-02-07T04:21:41;-1.70;99.90
16732;DHT22;8484;50.904;9.192;2023-02-07T04:24:09;-1.70;99.90
16732;DHT22;8484;50.904;9.192;2023-02-07T04:26:36;-1.70;99.90
16732;DHT22;8484;50.904;9.192;2023-02-07T04:29:03;-1.70;99.90
16732;DHT22;8484;50.904;9.192;2023-02-07T04:31:30;-1.70;99.90
16732;DHT22;8484;50.904;9.192;2023-02-07T04:33:57;-1.70;99.90
16732;DHT22;8484;50.904;9.192;2023-02-07T04:36:24;-1.60;99.90
16732;DHT22;8484;50.904;9.192;2023-02-07T04:38:54;-1.70;99.90
16732;DHT22;8484;50.904;9.192;2023-02-07T04:41:22;-1.80;99.90
16732;DHT22;8484;50.904;9.192;2023-02-07T04:43:49;-1.80;99.90
16732;DHT22;8484;50.904;9.192;2023-02-07T04:46:16;-1.80;99.90
16732;DHT22;8484;50.904;9.192;2023-02-07T04:48:43;-1.80;99.90
16732;DHT22;8484;50.904;9.192;2023-02-07T04:51:10;-1.80;99.90
16732;DHT22;8484;50.904;9.192;2023-02-07T04:53:37;-1.90;99.90
16732;DHT22;8484;50.904;9.192;2023-02-07T04:56:04;-1.80;99.90
16732;DHT22;8484;50.904;9.192;2023-02-07T04:58:33;-1.80;99.90
16732;DHT22;8484;50.904;9.192;2023-02-07T05:00:59;-1.90;99.90
16732;DHT22;8484;50.904;9.192;2023-02-07T05:03:26;-2.10;99.90
16732;DHT22;8484;50.904;9.192;2023-02-07T05:05:53;-2.20;99.90
16732;DHT22;8484;50.904;9.192;2023-02-07T05:08:21;-2.40;99.90
16732;DHT22;8484;50.904;9.192;2023-02-07T05:10:51;-2.60;99.90
16732;DHT22;8484;50.904;9.192;2023-02-07T05:13:19;-2.50;99.90
16732;DHT22;8484;50.904;9.192;2023-02-07T05:15:48;-2.40;99.90
16732;DHT22;8484;50.904;9.192;2023-02-07T05:18:15;-2.50;99.90
16732;DHT22;8484;50.904;9.192;2023-02-07T05:20:41;-2.70;99.90
16732;DHT22;8484;50.904;9.192;2023-02-07T05:23:09;-2.50;99.90
16732;DHT22;8484;50.904;9.192;2023-02-07T05:25:36;-2.40;99.90
16732;DHT22;8484;50.904;9.192;2023-02-07T05:28:03;-2.20;99.90
16732;DHT22;8484;50.904;9.192;2023-02-07T05:30:30;-2.20;99.90
16732;DHT22;8484;50.904;9.192;2023-02-07T05:32:58;-2.20;99.90
16732;DHT22;8484;50.904;9.192;2023-02-07T05:35:30;-2.20;99.90
16732;DHT22;8484;50.904;9.192;2023-02-07T05:37:57;-2.20;99.90
16732;DHT22;8484;50.904;9.192;2023-02-07T05:40:24;-2.20;99.90
16732;DHT22;8484;50.904;9.192;2023-02-07T05:42:52;-2.20;99.90
16732;DHT22;8484;50.904;9.192;2023-02-07T05:45:19;-2.10;99.90
16732;DHT22;8484;50.904;9.192;2023-02-07T05:47:46;-2.20;99.90
16732;DHT22;8484;50.904;9.192;2023-02-07T05:50:15;-2.20;99.90
16732;DHT22;8484;50.904;9.192;2023-02-07T05:52:42;-2.30;99.90
16732;DHT22;8484;50.904;9.192;2023-02-07T05:55:11;-2.40;99.90
16732;DHT22;8484;50.904;9.192;2023-02-07T05:57:38;-2.40;99.90
16732;DHT22;8484;50.904;9.192;2023-02-07T06:00:07;-2.40;99.90
16732;DHT22;8484;50.904;9.192;2023-02-07T06:02:35;-2.60;99.90
16732;DHT22;8484;50.904;9.192;2023-02-07T06:05:02;-2.50;99.90
16732;DHT22;8484;50.904;9.192;2023-02-07T06:07:30;-2.40;99.90
16732;DHT22;8484;50.904;9.192;2023-02-07T06:09:57;-2.70;99.90
16732;DHT22;8484;50.904;9.192;2023-02-07T06:12:24;-2.80;99.90
16732;DHT22;8484;50.904;9.192;2023-02-07T06:14:51;-2.80;99.90
16732;DHT22;8484;50.904;9.192;2023-02-07T06:17:18;-2.80;99.90
16732;DHT22;8484;50.904;9.192;2023-02-07T06:19:45;-2.80;99.90
16732;DHT22;8484;50.904;9.192;2023-02-07T06:22:13;-2.80;99.90
16732;DHT22;8484;50.904;9.192;2023-02-07T06:24:41;-2.80;99.90
16732;DHT22;8484;50.904;9.192;2023-02-07T06:27:08;-2.90;99.90
16732;DHT22;8484;50.904;9.192;2023-02-07T06:29:35;-2.80;99.90
16732;DHT22;8484;50.904;9.192;2023-02-07T06:32:03;-2.90;99.90
16732;DHT22;8484;50.904;9.192;2023-02-07T06:34:30;-2.80;99.90
16732;DHT22;8484;50.904;9.192;2023-02-07T06:36:56;-2.80;99.90
16732;DHT22;8484;50.904;9.192;2023-02-07T06:39:23;-2.70;99.90
16732;DHT22;8484;50.904;9.192;2023-02-07T06:41:51;-2.80;99.90
16732;DHT22;8484;50.904;9.192;2023-02-07T06:44:18;-2.70;99.90
16732;DHT22;8484;50.904;9.192;2023-02-07T06:46:45;-2.60;99.90
16732;DHT22;8484;50.904;9.192;2023-02-07T06:49:12;-2.70;99.90
16732;DHT22;8484;50.904;9.192;2023-02-07T06:51:39;-2.70;99.90
16732;DHT22;8484;50.904;9.192;2023-02-07T06:54:06;-2.70;99.90
16732;DHT22;8484;50.904;9.192;2023-02-07T06:56:35;-2.80;99.90
16732;DHT22;8484;50.904;9.192;2023-02-07T06:59:03;-2.70;99.90
16732;DHT22;8484;50.904;9.192;2023-02-07T07:01:30;-2.70;99.90
16732;DHT22;8484;50.904;9.192;2023-02-07T07:03:57;-2.60;99.90
16732;DHT22;8484;50.904;9.192;2023-02-07T07:06:24;-2.40;99.90
16732;DHT22;8484;50.904;9.192;2023-02-07T07:08:51;-2.20;99.90
16732;DHT22;8484;50.904;9.192;2023-02-07T07:11:18;-2.10;99.90
16732;DHT22;8484;50.904;9.192;2023-02-07T07:13:53;-1.80;99.90
16732;DHT22;8484;50.904;9.192;2023-02-07T07:16:21;-1.60;99.90
16732;DHT22;8484;50.904;9.192;2023-02-07T07:18:57;-1.60;99.90
16732;DHT22;8484;50.904;9.192;2023-02-07T07:21:34;-1.30;99.90
16732;DHT22;8484;50.904;9.192;2023-02-07T07:24:02;-1.10;99.90
16732;DHT22;8484;50.904;9.192;2023-02-07T07:26:29;-1.00;99.90
16732;DHT22;8484;50.904;9.192;2023-02-07T07:29:04;-0.90;99.90
16732;DHT22;8484;50.904;9.192;2023-02-07T07:31:36;-0.70;99.90
16732;DHT22;8484;50.904;9.192;2023-02-07T07:34:04;-0.60;99.90
16732;DHT22;8484;50.904;9.192;2023-02-07T07:36:31;-0.40;99.90
16732;DHT22;8484;50.904;9.192;2023-02-07T07:38:58;-0.10;99.90
16732;DHT22;8484;50.904;9.192;2023-02-07T07:41:25;0.10;99.90
16732;DHT22;8484;50.904;9.192;2023-02-07T07:43:52;0.30;99.90
16732;DHT22;8484;50.904;9.192;2023-02-07T07:46:19;0.70;99.90
16732;DHT22;8484;50.904;9.192;2023-02-07T07:48:48;0.50;99.90
16732;DHT22;8484;50.904;9.192;2023-02-07T07:51:15;0.70;99.90
16732;DHT22;8484;50.904;9.192;2023-02-07T07:53:42;0.80;99.90
16732;DHT22;8484;50.904;9.192;2023-02-07T07:56:09;0.80;99.90
16732;DHT22;8484;50.904;9.192;2023-02-07T07:58:36;0.80;99.90
16732;DHT22;8484;50.904;9.192;2023-02-07T08:01:03;1.10;99.90
16732;DHT22;8484;50.904;9.192;2023-02-07T08:03:31;1.10;99.90
16732;DHT22;8484;50.904;9.192;2023-02-07T08:05:59;1.20;99.90
16732;DHT22;8484;50.904;9.192;2023-02-07T08:08:28;1.20;99.90
16732;DHT22;8484;50.904;9.192;2023-02-07T08:11:00;1.00;99.90
16732;DHT22;8484;50.904;9.192;2023-02-07T08:13:28;0.90;99.90
16732;DHT22;8484;50.904;9.192;2023-02-07T08:15:55;1.20;99.90
16732;DHT22;8484;50.904;9.192;2023-02-07T08:18:22;1.40;99.90
16732;DHT22;8484;50.904;9.192;2023-02-07T08:20:49;1.90;99.90
16732;DHT22;8484;50.904;9.192;2023-02-07T08:23:18;2.20;99.90
16732;DHT22;8484;50.904;9.192;2023-02-07T08:25:45;2.10;99.90
16732;DHT22;8484;50.904;9.192;2023-02-07T08:28:12;2.70;99.90
16732;DHT22;8484;50.904;9.192;2023-02-07T08:30:39;3.20;99.90
16732;DHT22;8484;50.904;9.192;2023-02-07T08:33:07;3.40;99.90
16732;DHT22;8484;50.904;9.192;2023-02-07T08:35:35;3.50;99.90
16732;DHT22;8484;50.904;9.192;2023-02-07T08:38:02;3.80;99.90
16732;DHT22;8484;50.904;9.192;2023-02-07T08:40:31;4.10;99.90
16732;DHT22;8484;50.904;9.192;2023-02-07T08:42:58;4.40;99.90
16732;DHT22;8484;50.904;9.192;2023-02-07T08:45:25;5.10;99.90
16732;DHT22;8484;50.904;9.192;2023-02-07T08:47:52;4.80;99.90
16732;DHT22;8484;50.904;9.192;2023-02-07T08:50:20;5.00;99.90
16732;DHT22;8484;50.904;9.192;2023-02-07T08:52:49;5.40;99.90
16732;DHT22;8484;50.904;9.192;2023-02-07T08:55:16;5.70;99.90
16732;DHT22;8484;50.904;9.192;2023-02-07T08:57:45;5.70;99.90
16732;DHT22;8484;50.904;9.192;2023-02-07T09:00:13;5.60;99.90
16732;DHT22;8484;50.904;9.192;2023-02-07T09:02:40;6.20;99.90
16732;DHT22;8484;50.904;9.192;2023-02-07T09:05:08;5.50;99.90
16732;DHT22;8484;50.904;9.192;2023-02-07T09:07:36;6.50;99.90
16732;DHT22;8484;50.904;9.192;2023-02-07T09:10:04;6.10;99.90
16732;DHT22;8484;50.904;9.192;2023-02-07T09:12:35;5.80;99.90
16732;DHT22;8484;50.904;9.192;2023-02-07T09:15:05;5.80;99.90
16732;DHT22;8484;50.904;9.192;2023-02-07T09:17:32;6.60;99.90
16732;DHT22;8484;50.904;9.192;2023-02-07T09:19:59;7.00;99.90
16732;DHT22;8484;50.904;9.192;2023-02-07T09:22:26;6.60;99.90
16732;DHT22;8484;50.904;9.192;2023-02-07T09:24:53;6.90;99.90
16732;DHT22;8484;50.904;9.192;2023-02-07T09:27:24;6.30;99.90
16732;DHT22;8484;50.904;9.192;2023-02-07T09:29:51;7.20;99.90
16732;DHT22;8484;50.904;9.192;2023-02-07T09:32:20;7.40;99.90
16732;DHT22;8484;50.904;9.192;2023-02-07T09:34:47;7.70;99.90
16732;DHT22;8484;50.904;9.192;2023-02-07T09:37:14;7.80;99.90
16732;DHT22;8484;50.904;9.192;2023-02-07T09:39:41;7.40;99.90
16732;DHT22;8484;50.904;9.192;2023-02-07T09:42:17;7.70;99.90
16732;DHT22;8484;50.904;9.192;2023-02-07T09:44:56;7.30;99.90
16732;DHT22;8484;50.904;9.192;2023-02-07T09:47:27;7.50;99.90
16732;DHT22;8484;50.904;9.192;2023-02-07T09:49:57;7.70;99.90
16732;DHT22;8484;50.904;9.192;2023-02-07T09:52:29;7.60;99.90
16732;DHT22;8484;50.904;9.192;2023-02-07T09:54:58;7.80;99.90
16732;DHT22;8484;50.904;9.192;2023-02-07T09:57:28;7.70;99.90
16732;DHT22;8484;50.904;9.192;2023-02-07T10:00:06;7.80;99.90
16732;DHT22;8484;50.904;9.192;2023-02-07T10:02:51;8.10;99.90
16732;DHT22;8484;50.904;9.192;2023-02-07T10:05:21;8.60;99.90
16732;DHT22;8484;50.904;9.192;2023-02-07T10:07:52;8.70;99.90
16732;DHT22;8484;50.904;9.192;2023-02-07T10:10:24;7.30;99.90
16732;DHT22;8484;50.904;9.192;2023-02-07T10:13:09;6.80;99.90
16732;DHT22;8484;50.904;9.192;2023-02-07T10:15:49;6.50;99.90
16732;DHT22;8484;50.904;9.192;2023-02-07T10:18:30;7.60;99.90
16732;DHT22;8484;50.904;9.192;2023-02-07T10:21:03;7.80;99.90
16732;DHT22;8484;50.904;9.192;2023-02-07T10:23:39;8.00;99.90
16732;DHT22;8484;50.904;9.192;2023-02-07T10:26:19;8.20;99.90
16732;DHT22;8484;50.904;9.192;2023-02-07T10:29:36;8.40;99.90
16732;DHT22;8484;50.904;9.192;2023-02-07T10:32:13;8.40;99.20
16732;DHT22;8484;50.904;9.192;2023-02-07T10:34:44;9.10;98.50
16732;DHT22;8484;50.904;9.192;2023-02-07T10:37:18;9.50;98.70
16732;DHT22;8484;50.904;9.192;2023-02-07T10:39:51;8.70;99.50
16732;DHT22;8484;50.904;9.192;2023-02-07T10:42:20;9.00;98.90
16732;DHT22;8484;50.904;9.192;2023-02-07T10:44:49;9.00;98.20
16732;DHT22;8484;50.904;9.192;2023-02-07T10:47:17;9.70;97.90
16732;DHT22;8484;50.904;9.192;2023-02-07T10:49:47;9.80;97.50
16732;DHT22;8484;50.904;9.192;2023-02-07T10:52:27;9.40;96.60
16732;DHT22;8484;50.904;9.192;2023-02-07T10:54:56;9.20;97.50
16732;DHT22;8484;50.904;9.192;2023-02-07T10:57:24;9.80;97.10
16732;DHT22;8484;50.904;9.192;2023-02-07T11:00:02;9.50;97.50
16732;DHT22;8484;50.904;9.192;2023-02-07T11:02:48;9.10;98.20
16732;DHT22;8484;50.904;9.192;2023-02-07T11:05:37;9.30;96.90
16732;DHT22;8484;50.904;9.192;2023-02-07T11:10:52;9.30;96.80
16732;DHT22;8484;50.904;9.192;2023-02-07T11:13:24;9.10;98.40
16732;DHT22;8484;50.904;9.192;2023-02-07T11:15:55;8.50;97.10
16732;DHT22;8484;50.904;9.192;2023-02-07T11:18:32;8.30;99.40
16732;DHT22;8484;50.904;9.192;2023-02-07T11:21:05;8.70;98.00
16732;DHT22;8484;50.904;9.192;2023-02-07T11:23:33;8.30;98.60
16732;DHT22;8484;50.904;9.192;2023-02-07T11:26:01;8.90;99.90
16732;DHT22;8484;50.904;9.192;2023-02-07T11:28:31;9.70;98.80
16732;DHT22;8484;50.904;9.192;2023-02-07T11:31:01;9.40;97.90
16732;DHT22;8484;50.904;9.192;2023-02-07T11:33:31;9.80;96.40
16732;DHT22;8484;50.904;9.192;2023-02-07T11:36:09;10.80;96.20
16732;DHT22;8484;50.904;9.192;2023-02-07T11:38:39;11.20;96.40
16732;DHT22;8484;50.904;9.192;2023-02-07T11:41:18;11.20;96.20
16732;DHT22;8484;50.904;9.192;2023-02-07T11:43:55;10.40;96.80
16732;DHT22;8484;50.904;9.192;2023-02-07T11:46:28;10.70;95.20
16732;DHT22;8484;50.904;9.192;2023-02-07T11:48:57;9.30;95.70
16732;DHT22;8484;50.904;9.192;2023-02-07T11:51:26;10.00;96.30
16732;DHT22;8484;50.904;9.192;2023-02-07T11:53:59;9.60;97.90
16732;DHT22;8484;50.904;9.192;2023-02-07T11:56:30;10.30;96.20
16732;DHT22;8484;50.904;9.192;2023-02-07T11:59:02;9.80;97.00
16732;DHT22;8484;50.904;9.192;2023-02-07T12:01:32;8.90;98.40
16732;DHT22;8484;50.904;9.192;2023-02-07T12:04:01;9.10;98.60
16732;DHT22;8484;50.904;9.192;2023-02-07T12:06:39;9.80;98.50
16732;DHT22;8484;50.904;9.192;2023-02-07T12:09:19;10.00;97.40
16732;DHT22;8484;50.904;9.192;2023-02-07T12:11:48;10.80;96.90
16732;DHT22;8484;50.904;9.192;2023-02-07T12:14:24;11.20;96.90
16732;DHT22;8484;50.904;9.192;2023-02-07T12:16:55;9.40;95.50
16732;DHT22;8484;50.904;9.192;2023-02-07T12:19:27;8.60;96.20
16732;DHT22;8484;50.904;9.192;2023-02-07T12:22:00;9.30;97.20
16732;DHT22;8484;50.904;9.192;2023-02-07T12:24:33;9.30;96.60
16732;DHT22;8484;50.904;9.192;2023-02-07T12:27:05;8.70;96.30
16732;DHT22;8484;50.904;9.192;2023-02-07T12:29:48;9.80;94.70
16732;DHT22;8484;50.904;9.192;2023-02-07T12:32:22;10.20;96.90
16732;DHT22;8484;50.904;9.192;2023-02-07T12:34:56;10.30;95.80
16732;DHT22;8484;50.904;9.192;2023-02-07T12:37:33;9.40;97.50
16732;DHT22;8484;50.904;9.192;2023-02-07T12:40:11;9.80;96.50
16732;DHT22;8484;50.904;9.192;2023-02-07T12:42:42;9.00;96.90
16732;DHT22;8484;50.904;9.192;2023-02-07T12:45:14;9.10;97.70
16732;DHT22;8484;50.904;9.192;2023-02-07T12:47:55;9.40;96.40
16732;DHT22;8484;50.904;9.192;2023-02-07T12:50:37;10.40;96.90
16732;DHT22;8484;50.904;9.192;2023-02-07T12:53:21;10.80;95.10
16732;DHT22;8484;50.904;9.192;2023-02-07T12:56:01;11.10;95.60
16732;DHT22;8484;50.904;9.192;2023-02-07T12:58:39;11.20;95.20
16732;DHT22;8484;50.904;9.192;2023-02-07T13:01:11;11.10;95.40
16732;DHT22;8484;50.904;9.192;2023-02-07T13:03:59;10.70;96.40
16732;DHT22;8484;50.904;9.192;2023-02-07T13:06:34;10.90;96.20
16732;DHT22;8484;50.904;9.192;2023-02-07T13:09:09;10.90;95.20
16732;DHT22;8484;50.904;9.192;2023-02-07T13:11:41;9.60;96.00
16732;DHT22;8484;50.904;9.192;2023-02-07T13:14:23;8.50;96.70
16732;DHT22;8484;50.904;9.192;2023-02-07T13:17:09;7.40;98.00
16732;DHT22;8484;50.904;9.192;2023-02-07T13:19:46;7.90;99.80
16732;DHT22;8484;50.904;9.192;2023-02-07T13:22:25;9.40;97.50
16732;DHT22;8484;50.904;9.192;2023-02-07T13:24:55;9.90;96.50
16732;DHT22;8484;50.904;9.192;2023-02-07T13:27:25;9.20;94.80
16732;DHT22;8484;50.904;9.192;2023-02-07T13:29:53;9.10;95.70
16732;DHT22;8484;50.904;9.192;2023-02-07T13:32:23;9.70;95.70
16732;DHT22;8484;50.904;9.192;2023-02-07T13:34:54;9.60;95.60
16732;DHT22;8484;50.904;9.192;2023-02-07T13:37:27;8.60;98.10
16732;DHT22;8484;50.904;9.192;2023-02-07T13:40:01;8.80;97.80
16732;DHT22;8484;50.904;9.192;2023-02-07T13:42:36;8.30;97.00
16732;DHT22;8484;50.904;9.192;2023-02-07T13:45:15;8.20;97.60
16732;DHT22;8484;50.904;9.192;2023-02-07T13:47:58;8.70;96.70
16732;DHT22;8484;50.904;9.192;2023-02-07T13:50:47;9.20;96.60
16732;DHT22;8484;50.904;9.192;2023-02-07T13:53:27;8.20;98.50
16732;DHT22;8484;50.904;9.192;2023-02-07T13:56:01;9.00;98.50
16732;DHT22;8484;50.904;9.192;2023-02-07T13:58:50;8.50;97.90
16732;DHT22;8484;50.904;9.192;2023-02-07T14:01:35;8.60;98.80
16732;DHT22;8484;50.904;9.192;2023-02-07T14:04:06;8.60;98.50
16732;DHT22;8484;50.904;9.192;2023-02-07T14:06:35;9.10;97.40
16732;DHT22;8484;50.904;9.192;2023-02-07T14:09:16;9.90;96.40
16732;DHT22;8484;50.904;9.192;2023-02-07T14:11:46;9.70;97.30
16732;DHT22;8484;50.904;9.192;2023-02-07T14:14:22;10.30;96.20
16732;DHT22;8484;50.904;9.192;2023-02-07T14:16:51;9.10;97.90
16732;DHT22;8484;50.904;9.192;2023-02-07T14:19:47;8.30;99.00
16732;DHT22;8484;50.904;9.192;2023-02-07T14:22:16;8.30;98.60
16732;DHT22;8484;50.904;9.192;2023-02-07T14:25:16;7.90;99.70
16732;DHT22;8484;50.904;9.192;2023-02-07T14:31:10;7.60;99.80
16732;DHT22;8484;50.904;9.192;2023-02-07T14:33:40;7.90;99.90
16732;DHT22;8484;50.904;9.192;2023-02-07T14:36:24;7.40;99.90
16732;DHT22;8484;50.904;9.192;2023-02-07T14:39:04;7.40;99.90
16732;DHT22;8484;50.904;9.192;2023-02-07T14:41:36;7.00;99.90
16732;DHT22;8484;50.904;9.192;2023-02-07T14:44:06;6.90;99.90
16732;DHT22;8484;50.904;9.192;2023-02-07T14:46:41;7.10;99.90
16732;DHT22;8484;50.904;9.192;2023-02-07T14:49:19;6.70;99.90
16732;DHT22;8484;50.904;9.192;2023-02-07T14:51:49;6.70;99.90
16732;DHT22;8484;50.904;9.192;2023-02-07T14:54:24;6.30;99.90
16732;DHT22;8484;50.904;9.192;2023-02-07T14:57:00;6.30;99.90
16732;DHT22;8484;50.904;9.192;2023-02-07T14:59:34;6.00;99.90
16732;DHT22;8484;50.904;9.192;2023-02-07T15:02:34;6.00;99.90
16732;DHT22;8484;50.904;9.192;2023-02-07T15:05:27;5.80;99.90
16732;DHT22;8484;50.904;9.192;2023-02-07T15:08:04;5.50;99.90
16732;DHT22;8484;50.904;9.192;2023-02-07T15:10:33;5.40;99.90
16732;DHT22;8484;50.904;9.192;2023-02-07T15:13:04;5.30;99.90
16732;DHT22;8484;50.904;9.192;2023-02-07T15:15:42;4.90;99.90
16732;DHT22;8484;50.904;9.192;2023-02-07T15:18:13;4.90;99.90
16732;DHT22;8484;50.904;9.192;2023-02-07T15:20:48;5.10;99.90
16732;DHT22;8484;50.904;9.192;2023-02-07T15:23:16;4.80;99.90
16732;DHT22;8484;50.904;9.192;2023-02-07T15:25:43;4.90;99.90
16732;DHT22;8484;50.904;9.192;2023-02-07T15:28:22;4.30;99.90
16732;DHT22;8484;50.904;9.192;2023-02-07T15:30:59;4.20;99.90
16732;DHT22;8484;50.904;9.192;2023-02-07T15:33:32;4.20;99.90
16732;DHT22;8484;50.904;9.192;2023-02-07T15:36:03;4.10;99.90
16732;DHT22;8484;50.904;9.192;2023-02-07T15:38:30;4.00;99.90
16732;DHT22;8484;50.904;9.192;2023-02-07T15:40:57;3.80;99.90
16732;DHT22;8484;50.904;9.192;2023-02-07T15:43:30;3.70;99.90
16732;DHT22;8484;50.904;9.192;2023-02-07T15:46:07;3.60;99.90
16732;DHT22;8484;50.904;9.192;2023-02-07T15:48:51;3.70;99.90
16732;DHT22;8484;50.904;9.192;2023-02-07T15:51:24;3.50;99.90
16732;DHT22;8484;50.904;9.192;2023-02-07T15:53:55;3.30;99.90
16732;DHT22;8484;50.904;9.192;2023-02-07T15:56:23;3.20;99.90
16732;DHT22;8484;50.904;9.192;2023-02-07T15:58:52;3.20;99.90
16732;DHT22;8484;50.904;9.192;2023-02-07T16:01:24;3.20;99.90
16732;DHT22;8484;50.904;9.192;2023-02-07T16:03:55;3.30;99.90
16732;DHT22;8484;50.904;9.192;2023-02-07T16:06:23;3.10;99.90
16732;DHT22;8484;50.904;9.192;2023-02-07T16:08:51;3.10;99.90
16732;DHT22;8484;50.904;9.192;2023-02-07T16:11:33;2.90;99.90
16732;DHT22;8484;50.904;9.192;2023-02-07T16:14:03;2.80;99.90
16732;DHT22;8484;50.904;9.192;2023-02-07T16:16:34;2.60;99.90
16732;DHT22;8484;50.904;9.192;2023-02-07T16:19:15;2.70;99.90
16732;DHT22;8484;50.904;9.192;2023-02-07T16:21:45;2.80;99.90
16732;DHT22;8484;50.904;9.192;2023-02-07T16:24:19;2.80;99.90
16732;DHT22;8484;50.904;9.192;2023-02-07T16:26:47;2.60;99.90
16732;DHT22;8484;50.904;9.192;2023-02-07T16:29:17;2.50;99.90
16732;DHT22;8484;50.904;9.192;2023-02-07T16:31:45;2.50;99.90
16732;DHT22;8484;50.904;9.192;2023-02-07T16:34:15;2.50;99.90
16732;DHT22;8484;50.904;9.192;2023-02-07T16:36:44;2.40;99.90